sensor_id;sensor_type;location;lat;lon;timestamp;temperature;humidity
17697;DHT22;8967;47.984;7.842;2023-09-07T00:01:37;20.30;97.60
17697;DHT22;8967;47.984;7.842;2023-09-07T00:04:04;20.30;97.70
17697;DHT22;8967;47.984;7.842;2023-09-07T00:06:34;20.30;97.70
17697;DHT22;8967;47.984;7.842;2023-09-07T00:09:01;20.30;97.70
17697;DHT22;8967;47.984;7.842;2023-09-07T00:11:33;20.30;97.70
17697;DHT22;8967;47.984;7.842;2023-09-07T00:14:04;20.30;97.80
17697;DHT22;8967;47.984;7.842;2023-09-07T00:16:37;20.30;97.80
17697;DHT22;8967;47.984;7.842;2023-09-07T00:19:07;20.20;97.80
17697;DHT22;8967;47.984;7.842;2023-09-07T00:21:34;20.20;97.70
17697;DHT22;8967;47.984;7.842;2023-09-07T00:24:01;20.20;97.50
17697;DHT22;8967;47.984;7.842;2023-09-07T00:26:31;20.20;97.40
17697;DHT22;8967;47.984;7.842;2023-09-07T00:29:00;20.20;97.60
17697;DHT22;8967;47.984;7.842;2023-09-07T00:31:28;20.20;97.60
17697;DHT22;8967;47.984;7.842;2023-09-07T00:33:58;20.20;97.70
17697;DHT22;8967;47.984;7.842;2023-09-07T00:36:25;20.10;97.80
17697;DHT22;8967;47.984;7.842;2023-09-07T00:38:55;20.10;97.80
17697;DHT22;8967;47.984;7.842;2023-09-07T00:41:24;20.10;97.90
17697;DHT22;8967;47.984;7.842;2023-09-07T00:43:53;20.10;97.90
17697;DHT22;8967;47.984;7.842;2023-09-07T00:46:20;20.10;97.90
17697;DHT22;8967;47.984;7.842;2023-09-07T00:48:48;20.10;97.70
17697;DHT22;8967;47.984;7.842;2023-09-07T00:51:17;20.10;97.90
17697;DHT22;8967;47.984;7.842;2023-09-07T00:53:45;20.10;97.80
17697;DHT22;8967;47.984;7.842;2023-09-07T00:56:14;20.10;97.80
17697;DHT22;8967;47.984;7.842;2023-09-07T00:58:41;20.00;97.60
17697;DHT22;8967;47.984;7.842;2023-09-07T01:01:09;20.00;98.00
17697;DHT22;8967;47.984;7.842;2023-09-07T01:03:36;20.00;97.70
17697;DHT22;8967;47.984;7.842;2023-09-07T01:06:09;19.90;97.50
17697;DHT22;8967;47.984;7.842;2023-09-07T01:08:44;19.90;97.60
17697;DHT22;8967;47.984;7.842;2023-09-07T01:11:13;19.90;97.70
17697;DHT22;8967;47.984;7.842;2023-09-07T01:13:42;19.80;97.70
17697;DHT22;8967;47.984;7.842;2023-09-07T01:16:12;19.80;98.10
17697;DHT22;8967;47.984;7.842;2023-09-07T01:18:39;19.80;97.90
17697;DHT22;8967;47.984;7.842;2023-09-07T01:21:09;19.80;98.00
17697;DHT22;8967;47.984;7.842;2023-09-07T01:23:41;19.80;98.20
17697;DHT22;8967;47.984;7.842;2023-09-07T01:26:09;19.80;98.20
17697;DHT22;8967;47.984;7.842;2023-09-07T01:28:37;19.80;98.30
17697;DHT22;8967;47.984;7.842;2023-09-07T01:31:07;19.80;98.40
17697;DHT22;8967;47.984;7.842;2023-09-07T01:33:38;19.80;98.50
17697;DHT22;8967;47.984;7.842;2023-09-07T01:36:07;19.80;98.70
17697;DHT22;8967;47.984;7.842;2023-09-07T01:38:36;19.80;98.70
17697;DHT22;8967;47.984;7.842;2023-09-07T01:41:05;19.80;98.70
17697;DHT22;8967;47.984;7.842;2023-09-07T01:43:32;19.70;98.70
17697;DHT22;8967;47.984;7.842;2023-09-07T01:45:59;19.70;98.80
17697;DHT22;8967;47.984;7.842;2023-09-07T01:48:26;19.70;98.80
17697;DHT22;8967;47.984;7.842;2023-09-07T01:50:54;19.70;98.80
17697;DHT22;8967;47.984;7.842;2023-09-07T01:53:21;19.60;98.90
17697;DHT22;8967;47.984;7.842;2023-09-07T01:55:49;19.60;99.00
17697;DHT22;8967;47.984;7.842;2023-09-07T01:58:18;19.50;99.00
17697;DHT22;8967;47.984;7.842;2023-09-07T02:00:49;19.60;99.50
17697;DHT22;8967;47.984;7.842;2023-09-07T02:03:17;19.50;99.20
17697;DHT22;8967;47.984;7.842;2023-09-07T02:05:45;19.50;99.20
17697;DHT22;8967;47.984;7.842;2023-09-07T02:08:12;19.40;99.30
17697;DHT22;8967;47.984;7.842;2023-09-07T02:10:40;19.40;99.30
17697;DHT22;8967;47.984;7.842;2023-09-07T02:13:07;19.40;99.30
17697;DHT22;8967;47.984;7.842;2023-09-07T02:15:39;19.40;99.40
17697;DHT22;8967;47.984;7.842;2023-09-07T02:18:06;19.40;99.50
17697;DHT22;8967;47.984;7.842;2023-09-07T02:20:33;19.40;99.40
17697;DHT22;8967;47.984;7.842;2023-09-07T02:23:03;19.40;99.50
17697;DHT22;8967;47.984;7.842;2023-09-07T02:25:30;19.40;99.50
17697;DHT22;8967;47.984;7.842;2023-09-07T02:27:58;19.40;99.50
17697;DHT22;8967;47.984;7.842;2023-09-07T02:30:25;19.30;99.50
17697;DHT22;8967;47.984;7.842;2023-09-07T02:32:54;19.30;99.50
17697;DHT22;8967;47.984;7.842;2023-09-07T02:35:23;19.30;99.60
17697;DHT22;8967;47.984;7.842;2023-09-07T02:37:51;19.30;99.70
17697;DHT22;8967;47.984;7.842;2023-09-07T02:40:21;19.20;99.70
17697;DHT22;8967;47.984;7.842;2023-09-07T02:42:51;19.30;99.70
17697;DHT22;8967;47.984;7.842;2023-09-07T02:45:21;19.20;99.70
17697;DHT22;8967;47.984;7.842;2023-09-07T02:47:49;19.20;99.80
17697;DHT22;8967;47.984;7.842;2023-09-07T02:50:20;19.20;99.90
17697;DHT22;8967;47.984;7.842;2023-09-07T02:52:52;19.20;99.90
17697;DHT22;8967;47.984;7.842;2023-09-07T02:55:22;19.20;99.90
17697;DHT22;8967;47.984;7.842;2023-09-07T02:57:53;19.10;99.90
17697;DHT22;8967;47.984;7.842;2023-09-07T03:00:23;19.10;99.90
17697;DHT22;8967;47.984;7.842;2023-09-07T03:02:51;19.10;99.90
17697;DHT22;8967;47.984;7.842;2023-09-07T03:05:22;19.10;99.90
17697;DHT22;8967;47.984;7.842;2023-09-07T03:07:49;19.10;99.90
17697;DHT22;8967;47.984;7.842;2023-09-07T03:10:20;19.00;99.90
17697;DHT22;8967;47.984;7.842;2023-09-07T03:12:48;19.00;99.90
17697;DHT22;8967;47.984;7.842;2023-09-07T03:15:16;19.00;99.90
17697;DHT22;8967;47.984;7.842;2023-09-07T03:17:44;19.00;99.90
17697;DHT22;8967;47.984;7.842;2023-09-07T03:20:12;19.00;99.90
17697;DHT22;8967;47.984;7.842;2023-09-07T03:22:45;19.00;99.90
17697;DHT22;8967;47.984;7.842;2023-09-07T03:25:13;19.00;99.90
17697;DHT22;8967;47.984;7.842;2023-09-07T03:27:40;19.00;99.90
17697;DHT22;8967;47.984;7.842;2023-09-07T03:30:11;19.00;99.90
17697;DHT22;8967;47.984;7.842;2023-09-07T03:32:38;19.00;99.90
17697;DHT22;8967;47.984;7.842;2023-09-07T03:35:06;18.90;99.90
17697;DHT22;8967;47.984;7.842;2023-09-07T03:37:35;18.90;99.90
17697;DHT22;8967;47.984;7.842;2023-09-07T03:40:05;18.90;99.90
17697;DHT22;8967;47.984;7.842;2023-09-07T03:42:35;18.90;99.90
17697;DHT22;8967;47.984;7.842;2023-09-07T03:45:07;18.90;99.90
17697;DHT22;8967;47.984;7.842;2023-09-07T03:47:34;18.90;99.90
17697;DHT22;8967;47.984;7.842;2023-09-07T03:50:02;18.90;99.90
17697;DHT22;8967;47.984;7.842;2023-09-07T03:52:31;18.80;99.90
17697;DHT22;8967;47.984;7.842;2023-09-07T03:55:00;18.80;99.90
17697;DHT22;8967;47.984;7.842;2023-09-07T03:57:29;18.80;99.90
17697;DHT22;8967;47.984;7.842;2023-09-07T03:59:57;18.80;99.90
17697;DHT22;8967;47.984;7.842;2023-09-07T04:02:27;18.80;99.90
17697;DHT22;8967;47.984;7.842;2023-09-07T04:04:56;18.80;99.90
17697;DHT22;8967;47.984;7.842;2023-09-07T04:07:23;18.80;99.90
17697;DHT22;8967;47.984;7.842;2023-09-07T04:09:50;18.80;99.90
17697;DHT22;8967;47.984;7.842;2023-09-07T04:12:18;18.80;99.90
17697;DHT22;8967;47.984;7.842;2023-09-07T04:14:47;18.80;99.90
17697;DHT22;8967;47.984;7.842;2023-09-07T04:17:28;18.80;99.90
17697;DHT22;8967;47.984;7.842;2023-09-07T04:19:59;18.80;99.90
17697;DHT22;8967;47.984;7.842;2023-09-07T04:22:28;18.80;99.90
17697;DHT22;8967;47.984;7.842;2023-09-07T04:24:55;18.80;99.90
17697;DHT22;8967;47.984;7.842;2023-09-07T04:27:24;18.80;99.90
17697;DHT22;8967;47.984;7.842;2023-09-07T04:29:53;18.70;99.90
17697;DHT22;8967;47.984;7.842;2023-09-07T04:32:21;18.80;99.90
17697;DHT22;8967;47.984;7.842;2023-09-07T04:34:53;18.70;99.90
17697;DHT22;8967;47.984;7.842;2023-09-07T04:37:20;18.80;99.90
17697;DHT22;8967;47.984;7.842;2023-09-07T04:39:51;18.70;99.90
17697;DHT22;8967;47.984;7.842;2023-09-07T04:42:22;18.70;99.90
17697;DHT22;8967;47.984;7.842;2023-09-07T04:44:53;18.60;99.90
17697;DHT22;8967;47.984;7.842;2023-09-07T04:47:20;18.60;99.90
17697;DHT22;8967;47.984;7.842;2023-09-07T04:49:50;18.60;99.90
17697;DHT22;8967;47.984;7.842;2023-09-07T04:52:22;18.50;99.90
17697;DHT22;8967;47.984;7.842;2023-09-07T04:54:49;18.50;99.90
17697;DHT22;8967;47.984;7.842;2023-09-07T04:57:19;18.50;99.90
17697;DHT22;8967;47.984;7.842;2023-09-07T04:59:49;18.40;99.90
17697;DHT22;8967;47.984;7.842;2023-09-07T05:02:20;18.40;99.90
17697;DHT22;8967;47.984;7.842;2023-09-07T05:04:47;18.40;99.90
17697;DHT22;8967;47.984;7.842;2023-09-07T05:07:17;18.40;99.90
17697;DHT22;8967;47.984;7.842;2023-09-07T05:09:44;18.40;99.90
17697;DHT22;8967;47.984;7.842;2023-09-07T05:12:12;18.30;99.90
17697;DHT22;8967;47.984;7.842;2023-09-07T05:14:42;18.30;99.90
17697;DHT22;8967;47.984;7.842;2023-09-07T05:17:09;18.30;99.90
17697;DHT22;8967;47.984;7.842;2023-09-07T05:19:38;18.30;99.90
17697;DHT22;8967;47.984;7.842;2023-09-07T05:22:07;18.30;99.90
17697;DHT22;8967;47.984;7.842;2023-09-07T05:24:34;18.30;99.90
17697;DHT22;8967;47.984;7.842;2023-09-07T05:27:07;18.30;99.90
17697;DHT22;8967;47.984;7.842;2023-09-07T05:29:34;18.30;99.90
17697;DHT22;8967;47.984;7.842;2023-09-07T05:32:01;18.30;99.90
17697;DHT22;8967;47.984;7.842;2023-09-07T05:34:32;18.30;99.90
17697;DHT22;8967;47.984;7.842;2023-09-07T05:37:00;18.30;99.90
17697;DHT22;8967;47.984;7.842;2023-09-07T05:39:30;18.30;99.90
17697;DHT22;8967;47.984;7.842;2023-09-07T05:41:57;18.30;99.90
17697;DHT22;8967;47.984;7.842;2023-09-07T05:44:24;18.30;99.90
17697;DHT22;8967;47.984;7.842;2023-09-07T05:46:52;18.30;99.90
17697;DHT22;8967;47.984;7.842;2023-09-07T05:49:30;18.30;99.90
17697;DHT22;8967;47.984;7.842;2023-09-07T05:51:57;18.40;99.90
17697;DHT22;8967;47.984;7.842;2023-09-07T05:54:28;18.40;99.90
17697;DHT22;8967;47.984;7.842;2023-09-07T05:56:55;18.40;99.90
17697;DHT22;8967;47.984;7.842;2023-09-07T05:59:27;18.40;99.90
17697;DHT22;8967;47.984;7.842;2023-09-07T06:01:57;18.40;99.90
17697;DHT22;8967;47.984;7.842;2023-09-07T06:04:29;18.50;99.90
17697;DHT22;8967;47.984;7.842;2023-09-07T06:06:56;18.50;99.90
17697;DHT22;8967;47.984;7.842;2023-09-07T06:09:24;18.50;99.90
17697;DHT22;8967;47.984;7.842;2023-09-07T06:11:54;18.50;99.90
17697;DHT22;8967;47.984;7.842;2023-09-07T06:14:21;18.60;99.90
17697;DHT22;8967;47.984;7.842;2023-09-07T06:16:49;18.60;99.90
17697;DHT22;8967;47.984;7.842;2023-09-07T06:19:16;18.60;99.90
17697;DHT22;8967;47.984;7.842;2023-09-07T06:21:43;18.70;99.90
17697;DHT22;8967;47.984;7.842;2023-09-07T06:24:10;18.70;99.90
17697;DHT22;8967;47.984;7.842;2023-09-07T06:26:37;18.70;99.90
17697;DHT22;8967;47.984;7.842;2023-09-07T06:29:06;18.70;99.90
17697;DHT22;8967;47.984;7.842;2023-09-07T06:31:33;18.80;99.90
17697;DHT22;8967;47.984;7.842;2023-09-07T06:34:00;18.80;99.90
17697;DHT22;8967;47.984;7.842;2023-09-07T06:36:29;18.80;99.90
17697;DHT22;8967;47.984;7.842;2023-09-07T06:38:57;18.80;99.90
17697;DHT22;8967;47.984;7.842;2023-09-07T06:41:25;18.80;99.90
17697;DHT22;8967;47.984;7.842;2023-09-07T06:43:52;18.90;99.90
17697;DHT22;8967;47.984;7.842;2023-09-07T06:46:21;18.90;99.90
17697;DHT22;8967;47.984;7.842;2023-09-07T06:48:48;18.90;99.90
17697;DHT22;8967;47.984;7.842;2023-09-07T06:51:15;18.90;99.90
17697;DHT22;8967;47.984;7.842;2023-09-07T06:53:42;18.90;99.90
17697;DHT22;8967;47.984;7.842;2023-09-07T06:56:09;18.90;99.90
17697;DHT22;8967;47.984;7.842;2023-09-07T06:58:42;19.00;99.90
17697;DHT22;8967;47.984;7.842;2023-09-07T07:01:11;19.00;99.90
17697;DHT22;8967;47.984;7.842;2023-09-07T07:03:39;19.00;99.90
17697;DHT22;8967;47.984;7.842;2023-09-07T07:06:09;19.00;99.90
17697;DHT22;8967;47.984;7.842;2023-09-07T07:08:36;19.00;99.90
17697;DHT22;8967;47.984;7.842;2023-09-07T07:11:03;19.10;99.90
17697;DHT22;8967;47.984;7.842;2023-09-07T07:13:30;19.10;99.90
17697;DHT22;8967;47.984;7.842;2023-09-07T07:15:58;19.10;99.90
17697;DHT22;8967;47.984;7.842;2023-09-07T07:18:27;19.20;99.90
17697;DHT22;8967;47.984;7.842;2023-09-07T07:20:58;19.20;99.90
17697;DHT22;8967;47.984;7.842;2023-09-07T07:23:27;19.20;99.90
17697;DHT22;8967;47.984;7.842;2023-09-07T07:25:57;19.20;99.90
17697;DHT22;8967;47.984;7.842;2023-09-07T07:28:25;19.30;99.90
17697;DHT22;8967;47.984;7.842;2023-09-07T07:30:55;19.30;99.90
17697;DHT22;8967;47.984;7.842;2023-09-07T07:33:25;19.30;99.90
17697;DHT22;8967;47.984;7.842;2023-09-07T07:35:55;19.40;99.90
17697;DHT22;8967;47.984;7.842;2023-09-07T07:38:26;19.40;99.90
17697;DHT22;8967;47.984;7.842;2023-09-07T07:40:53;19.50;99.90
17697;DHT22;8967;47.984;7.842;2023-09-07T07:43:20;19.50;99.90
17697;DHT22;8967;47.984;7.842;2023-09-07T07:45:48;19.50;99.90
17697;DHT22;8967;47.984;7.842;2023-09-07T07:48:16;19.60;99.90
17697;DHT22;8967;47.984;7.842;2023-09-07T07:50:48;19.60;99.90
17697;DHT22;8967;47.984;7.842;2023-09-07T07:53:15;19.60;99.90
17697;DHT22;8967;47.984;7.842;2023-09-07T07:55:45;19.70;99.90
17697;DHT22;8967;47.984;7.842;2023-09-07T07:58:17;19.70;99.90
17697;DHT22;8967;47.984;7.842;2023-09-07T08:00:44;19.70;99.90
17697;DHT22;8967;47.984;7.842;2023-09-07T08:03:15;19.80;99.90
17697;DHT22;8967;47.984;7.842;2023-09-07T08:05:47;19.80;99.90
17697;DHT22;8967;47.984;7.842;2023-09-07T08:08:40;19.80;99.90
17697;DHT22;8967;47.984;7.842;2023-09-07T08:11:15;19.90;99.90
17697;DHT22;8967;47.984;7.842;2023-09-07T08:13:47;19.90;99.90
17697;DHT22;8967;47.984;7.842;2023-09-07T08:16:15;20.00;99.90
17697;DHT22;8967;47.984;7.842;2023-09-07T08:18:42;20.10;99.90
17697;DHT22;8967;47.984;7.842;2023-09-07T08:21:12;20.10;99.90
17697;DHT22;8967;47.984;7.842;2023-09-07T08:23:39;20.10;99.90
17697;DHT22;8967;47.984;7.842;2023-09-07T08:26:25;20.20;99.90
17697;DHT22;8967;47.984;7.842;2023-09-07T08:28:52;20.20;99.90
17697;DHT22;8967;47.984;7.842;2023-09-07T08:31:19;20.30;99.90
17697;DHT22;8967;47.984;7.842;2023-09-07T08:33:48;20.30;99.90
17697;DHT22;8967;47.984;7.842;2023-09-07T08:36:35;20.40;99.90
17697;DHT22;8967;47.984;7.842;2023-09-07T08:39:06;20.40;99.90
17697;DHT22;8967;47.984;7.842;2023-09-07T08:41:42;20.50;99.90
17697;DHT22;8967;47.984;7.842;2023-09-07T08:44:11;20.60;99.90
17697;DHT22;8967;47.984;7.842;2023-09-07T08:46:40;20.60;99.90
17697;DHT22;8967;47.984;7.842;2023-09-07T08:51:51;20.70;99.90
17697;DHT22;8967;47.984;7.842;2023-09-07T08:54:19;20.80;99.90
17697;DHT22;8967;47.984;7.842;2023-09-07T08:56:50;20.80;99.90
17697;DHT22;8967;47.984;7.842;2023-09-07T08:59:24;20.90;99.90
17697;DHT22;8967;47.984;7.842;2023-09-07T09:01:58;21.00;99.90
17697;DHT22;8967;47.984;7.842;2023-09-07T09:04:53;21.10;99.90
17697;DHT22;8967;47.984;7.842;2023-09-07T09:07:21;21.20;99.90
17697;DHT22;8967;47.984;7.842;2023-09-07T09:10:17;21.30;99.90
17697;DHT22;8967;47.984;7.842;2023-09-07T09:12:48;21.40;99.90
17697;DHT22;8967;47.984;7.842;2023-09-07T09:15:15;21.40;99.90
17697;DHT22;8967;47.984;7.842;2023-09-07T09:17:45;21.50;99.90
17697;DHT22;8967;47.984;7.842;2023-09-07T09:20:21;21.50;99.90
17697;DHT22;8967;47.984;7.842;2023-09-07T09:22:51;21.60;99.90
17697;DHT22;8967;47.984;7.842;2023-09-07T09:25:18;21.70;99.90
17697;DHT22;8967;47.984;7.842;2023-09-07T09:27:49;21.70;99.90
17697;DHT22;8967;47.984;7.842;2023-09-07T09:30:20;21.70;99.90
17697;DHT22;8967;47.984;7.842;2023-09-07T09:32:48;21.70;99.90
17697;DHT22;8967;47.984;7.842;2023-09-07T09:35:16;21.80;99.90
17697;DHT22;8967;47.984;7.842;2023-09-07T09:37:48;21.80;99.90
17697;DHT22;8967;47.984;7.842;2023-09-07T09:40:15;21.90;99.90
17697;DHT22;8967;47.984;7.842;2023-09-07T09:42:44;21.90;99.90
17697;DHT22;8967;47.984;7.842;2023-09-07T09:45:12;21.90;99.90
17697;DHT22;8967;47.984;7.842;2023-09-07T09:47:41;22.00;99.90
17697;DHT22;8967;47.984;7.842;2023-09-07T09:50:11;22.00;99.90
17697;DHT22;8967;47.984;7.842;2023-09-07T09:52:38;22.10;99.90
17697;DHT22;8967;47.984;7.842;2023-09-07T09:55:08;22.10;99.90
17697;DHT22;8967;47.984;7.842;2023-09-07T09:57:38;22.10;99.90
17697;DHT22;8967;47.984;7.842;2023-09-07T10:00:09;22.10;99.90
17697;DHT22;8967;47.984;7.842;2023-09-07T10:02:55;22.20;99.90
17697;DHT22;8967;47.984;7.842;2023-09-07T10:05:25;22.20;99.90
17697;DHT22;8967;47.984;7.842;2023-09-07T10:07:52;22.20;99.90
17697;DHT22;8967;47.984;7.842;2023-09-07T10:10:20;22.20;99.90
17697;DHT22;8967;47.984;7.842;2023-09-07T10:12:52;22.30;99.90
17697;DHT22;8967;47.984;7.842;2023-09-07T10:15:21;22.30;99.90
17697;DHT22;8967;47.984;7.842;2023-09-07T10:18:05;22.40;99.90
17697;DHT22;8967;47.984;7.842;2023-09-07T10:20:53;22.40;99.90
17697;DHT22;8967;47.984;7.842;2023-09-07T10:23:36;22.50;99.90
17697;DHT22;8967;47.984;7.842;2023-09-07T10:26:05;22.50;99.90
17697;DHT22;8967;47.984;7.842;2023-09-07T10:28:32;22.60;99.90
17697;DHT22;8967;47.984;7.842;2023-09-07T10:31:04;22.70;99.90
17697;DHT22;8967;47.984;7.842;2023-09-07T10:33:34;22.80;99.90
17697;DHT22;8967;47.984;7.842;2023-09-07T10:36:01;22.80;99.90
17697;DHT22;8967;47.984;7.842;2023-09-07T10:38:31;22.80;99.90
17697;DHT22;8967;47.984;7.842;2023-09-07T10:41:00;22.80;99.80
17697;DHT22;8967;47.984;7.842;2023-09-07T10:43:31;22.80;99.80
17697;DHT22;8967;47.984;7.842;2023-09-07T10:46:00;22.90;99.80
17697;DHT22;8967;47.984;7.842;2023-09-07T10:48:29;22.90;99.90
17697;DHT22;8967;47.984;7.842;2023-09-07T10:50:58;23.00;99.70
17697;DHT22;8967;47.984;7.842;2023-09-07T10:53:30;23.10;99.60
17697;DHT22;8967;47.984;7.842;2023-09-07T10:55:59;23.10;99.50
17697;DHT22;8967;47.984;7.842;2023-09-07T10:58:30;23.10;99.40
17697;DHT22;8967;47.984;7.842;2023-09-07T11:00:58;23.30;99.40
17697;DHT22;8967;47.984;7.842;2023-09-07T11:03:28;23.30;98.50
17697;DHT22;8967;47.984;7.842;2023-09-07T11:06:01;23.40;98.50
17697;DHT22;8967;47.984;7.842;2023-09-07T11:08:30;23.40;98.40
17697;DHT22;8967;47.984;7.842;2023-09-07T11:11:00;23.40;98.40
17697;DHT22;8967;47.984;7.842;2023-09-07T11:13:29;23.50;98.20
17697;DHT22;8967;47.984;7.842;2023-09-07T11:16:02;23.50;97.80
17697;DHT22;8967;47.984;7.842;2023-09-07T11:18:37;23.50;97.70
17697;DHT22;8967;47.984;7.842;2023-09-07T11:21:05;23.50;97.80
17697;DHT22;8967;47.984;7.842;2023-09-07T11:23:35;23.60;97.90
17697;DHT22;8967;47.984;7.842;2023-09-07T11:26:04;23.60;98.20
17697;DHT22;8967;47.984;7.842;2023-09-07T11:28:32;23.60;97.70
17697;DHT22;8967;47.984;7.842;2023-09-07T11:30:59;23.70;97.80
17697;DHT22;8967;47.984;7.842;2023-09-07T11:33:30;23.70;97.70
17697;DHT22;8967;47.984;7.842;2023-09-07T11:35:58;23.80;97.90
17697;DHT22;8967;47.984;7.842;2023-09-07T11:38:29;23.80;97.70
17697;DHT22;8967;47.984;7.842;2023-09-07T11:40:58;23.90;97.20
17697;DHT22;8967;47.984;7.842;2023-09-07T11:43:26;24.00;97.20
17697;DHT22;8967;47.984;7.842;2023-09-07T11:45:55;24.00;97.10
17697;DHT22;8967;47.984;7.842;2023-09-07T11:48:22;24.00;97.00
17697;DHT22;8967;47.984;7.842;2023-09-07T11:50:49;24.00;97.00
17697;DHT22;8967;47.984;7.842;2023-09-07T11:53:16;24.00;97.00
17697;DHT22;8967;47.984;7.842;2023-09-07T11:55:45;24.00;97.30
17697;DHT22;8967;47.984;7.842;2023-09-07T11:58:15;24.10;96.90
17697;DHT22;8967;47.984;7.842;2023-09-07T12:00:42;24.10;96.80
17697;DHT22;8967;47.984;7.842;2023-09-07T12:03:09;24.10;97.30
17697;DHT22;8967;47.984;7.842;2023-09-07T12:05:38;24.10;96.70
17697;DHT22;8967;47.984;7.842;2023-09-07T12:08:07;24.20;96.50
17697;DHT22;8967;47.984;7.842;2023-09-07T12:10:34;24.20;96.40
17697;DHT22;8967;47.984;7.842;2023-09-07T12:13:03;24.20;96.40
17697;DHT22;8967;47.984;7.842;2023-09-07T12:15:31;24.30;96.20
17697;DHT22;8967;47.984;7.842;2023-09-07T12:18:00;24.30;95.80
17697;DHT22;8967;47.984;7.842;2023-09-07T12:20:33;24.30;95.40
17697;DHT22;8967;47.984;7.842;2023-09-07T12:23:03;24.30;95.80
17697;DHT22;8967;47.984;7.842;2023-09-07T12:25:32;24.30;95.50
17697;DHT22;8967;47.984;7.842;2023-09-07T12:28:04;24.30;95.60
17697;DHT22;8967;47.984;7.842;2023-09-07T12:30:31;24.30;95.90
17697;DHT22;8967;47.984;7.842;2023-09-07T12:33:00;24.30;95.60
17697;DHT22;8967;47.984;7.842;2023-09-07T12:35:29;24.40;95.30
17697;DHT22;8967;47.984;7.842;2023-09-07T12:37:57;24.40;95.20
17697;DHT22;8967;47.984;7.842;2023-09-07T12:40:26;24.50;95.00
17697;DHT22;8967;47.984;7.842;2023-09-07T12:42:53;24.50;95.10
17697;DHT22;8967;47.984;7.842;2023-09-07T12:45:22;24.50;95.10
17697;DHT22;8967;47.984;7.842;2023-09-07T12:47:49;24.50;95.10
17697;DHT22;8967;47.984;7.842;2023-09-07T12:50:18;24.50;95.00
17697;DHT22;8967;47.984;7.842;2023-09-07T12:52:47;24.50;95.10
17697;DHT22;8967;47.984;7.842;2023-09-07T12:55:18;24.50;95.00
17697;DHT22;8967;47.984;7.842;2023-09-07T12:57:45;24.60;94.70
17697;DHT22;8967;47.984;7.842;2023-09-07T13:00:15;24.70;94.60
17697;DHT22;8967;47.984;7.842;2023-09-07T13:02:43;24.70;94.60
17697;DHT22;8967;47.984;7.842;2023-09-07T13:05:11;24.70;94.40
17697;DHT22;8967;47.984;7.842;2023-09-07T13:07:42;24.70;94.40
17697;DHT22;8967;47.984;7.842;2023-09-07T13:10:10;24.80;94.70
17697;DHT22;8967;47.984;7.842;2023-09-07T13:12:37;24.80;94.40
17697;DHT22;8967;47.984;7.842;2023-09-07T13:15:07;24.80;94.40
17697;DHT22;8967;47.984;7.842;2023-09-07T13:17:36;24.80;94.40
17697;DHT22;8967;47.984;7.842;2023-09-07T13:20:06;24.80;94.60
17697;DHT22;8967;47.984;7.842;2023-09-07T13:22:33;24.80;94.40
17697;DHT22;8967;47.984;7.842;2023-09-07T13:25:03;24.80;94.40
17697;DHT22;8967;47.984;7.842;2023-09-07T13:27:34;24.90;94.30
17697;DHT22;8967;47.984;7.842;2023-09-07T13:30:07;25.00;93.90
17697;DHT22;8967;47.984;7.842;2023-09-07T13:32:34;25.00;93.80
17697;DHT22;8967;47.984;7.842;2023-09-07T13:35:02;25.00;93.60
17697;DHT22;8967;47.984;7.842;2023-09-07T13:37:31;25.10;93.60
17697;DHT22;8967;47.984;7.842;2023-09-07T13:39:58;25.10;93.50
17697;DHT22;8967;47.984;7.842;2023-09-07T13:42:25;25.10;93.50
17697;DHT22;8967;47.984;7.842;2023-09-07T13:44:53;25.10;93.40
17697;DHT22;8967;47.984;7.842;2023-09-07T13:47:22;25.10;93.50
17697;DHT22;8967;47.984;7.842;2023-09-07T13:49:49;25.10;93.80
17697;DHT22;8967;47.984;7.842;2023-09-07T13:52:16;25.10;93.50
17697;DHT22;8967;47.984;7.842;2023-09-07T13:54:44;25.10;93.50
17697;DHT22;8967;47.984;7.842;2023-09-07T13:57:14;25.10;93.50
17697;DHT22;8967;47.984;7.842;2023-09-07T13:59:41;25.10;93.50
17697;DHT22;8967;47.984;7.842;2023-09-07T14:02:08;25.10;93.40
17697;DHT22;8967;47.984;7.842;2023-09-07T14:04:35;25.10;93.40
17697;DHT22;8967;47.984;7.842;2023-09-07T14:07:02;25.10;93.30
17697;DHT22;8967;47.984;7.842;2023-09-07T14:09:29;25.10;93.00
17697;DHT22;8967;47.984;7.842;2023-09-07T14:11:58;25.10;92.60
17697;DHT22;8967;47.984;7.842;2023-09-07T14:14:25;25.10;92.60
17697;DHT22;8967;47.984;7.842;2023-09-07T14:16:52;25.20;92.40
17697;DHT22;8967;47.984;7.842;2023-09-07T14:19:25;25.20;92.40
17697;DHT22;8967;47.984;7.842;2023-09-07T14:21:56;25.20;92.40
17697;DHT22;8967;47.984;7.842;2023-09-07T14:24:23;25.20;92.50
17697;DHT22;8967;47.984;7.842;2023-09-07T14:26:55;25.20;92.40
17697;DHT22;8967;47.984;7.842;2023-09-07T14:29:26;25.20;92.30
17697;DHT22;8967;47.984;7.842;2023-09-07T14:31:57;25.20;92.20
17697;DHT22;8967;47.984;7.842;2023-09-07T14:34:27;25.20;92.20
17697;DHT22;8967;47.984;7.842;2023-09-07T14:36:54;25.30;92.30
17697;DHT22;8967;47.984;7.842;2023-09-07T14:39:24;25.30;92.20
17697;DHT22;8967;47.984;7.842;2023-09-07T14:41:51;25.20;91.80
17697;DHT22;8967;47.984;7.842;2023-09-07T14:44:19;25.20;91.70
17697;DHT22;8967;47.984;7.842;2023-09-07T14:46:47;25.20;91.50
17697;DHT22;8967;47.984;7.842;2023-09-07T14:49:18;25.30;91.50
17697;DHT22;8967;47.984;7.842;2023-09-07T14:51:49;25.20;91.40
17697;DHT22;8967;47.984;7.842;2023-09-07T14:54:16;25.20;91.20
17697;DHT22;8967;47.984;7.842;2023-09-07T14:56:46;25.30;91.10
17697;DHT22;8967;47.984;7.842;2023-09-07T14:59:13;25.30;91.00
17697;DHT22;8967;47.984;7.842;2023-09-07T15:01:40;25.30;91.10
17697;DHT22;8967;47.984;7.842;2023-09-07T15:04:08;25.20;90.50
17697;DHT22;8967;47.984;7.842;2023-09-07T15:06:35;25.20;90.20
17697;DHT22;8967;47.984;7.842;2023-09-07T15:09:03;25.20;90.20
17697;DHT22;8967;47.984;7.842;2023-09-07T15:11:30;25.20;90.20
17697;DHT22;8967;47.984;7.842;2023-09-07T15:13:58;25.20;90.30
17697;DHT22;8967;47.984;7.842;2023-09-07T15:16:25;25.20;90.30
17697;DHT22;8967;47.984;7.842;2023-09-07T15:18:54;25.20;90.30
17697;DHT22;8967;47.984;7.842;2023-09-07T15:21:23;25.20;90.20
17697;DHT22;8967;47.984;7.842;2023-09-07T15:23:50;25.20;90.20
17697;DHT22;8967;47.984;7.842;2023-09-07T15:26:17;25.20;90.30
17697;DHT22;8967;47.984;7.842;2023-09-07T15:28:44;25.20;90.50
17697;DHT22;8967;47.984;7.842;2023-09-07T15:31:11;25.20;90.60
17697;DHT22;8967;47.984;7.842;2023-09-07T15:33:38;25.20;90.60
17697;DHT22;8967;47.984;7.842;2023-09-07T15:36:07;25.30;90.60
17697;DHT22;8967;47.984;7.842;2023-09-07T15:38:36;25.30;90.70
17697;DHT22;8967;47.984;7.842;2023-09-07T15:41:03;25.20;90.70
17697;DHT22;8967;47.984;7.842;2023-09-07T15:43:31;25.20;90.60
17697;DHT22;8967;47.984;7.842;2023-09-07T15:45:59;25.20;90.60
17697;DHT22;8967;47.984;7.842;2023-09-07T15:48:26;25.20;90.60
17697;DHT22;8967;47.984;7.842;2023-09-07T15:50:53;25.20;90.70
17697;DHT22;8967;47.984;7.842;2023-09-07T15:53:20;25.20;90.60
17697;DHT22;8967;47.984;7.842;2023-09-07T15:55:51;25.20;90.60
17697;DHT22;8967;47.984;7.842;2023-09-07T15:58:18;25.20;90.70
17697;DHT22;8967;47.984;7.842;2023-09-07T16:00:45;25.20;90.80